HEMM

Mersa Matruh Airport

Mersa Matruh, Egypt
METAR HEMM 092000Z 25011KT 9999 SCT020 16/10 Q1020 NOSIG
Observed Flight Rules
Dec-9 @ 20:00 UTC (2 hours ago) Visual Flight Rules
Wind Visibility Clouds
250° at 11 knots 10,000+ meters
  • Scattered at 2,000' AGL
Temperatures Readings
Current 16°C / 61°F
Dewpoint 10°C / 50°F
Humidity 68%
Altimeter 30.12" Hg
Pressure 1020 hPa
Elevation 30
METAR HEMM 092000Z 25011KT 9999 SCT020 16/10 Q1020 NOSIG
Observed Flight Rules
Dec-9 @ 20:00 UTC
(2 hours ago)
VFR
Wind Visibility
250° at 11 knots 10,000+ meters
Clouds
  • Scattered at 2,000' AGL
Temperature Dewpoint
16°C / 61°F 10°C / 50°F
Humidity Altimeter Pressure
68% 30.12" Hg 1020 hPa